createdAt,value
2022-10-23T00:01:47.679Z,13.53
2022-10-23T00:04:15.711Z,13.60
2022-10-23T00:06:43.049Z,13.52
2022-10-23T00:09:10.128Z,13.51
2022-10-23T00:11:36.640Z,13.53
2022-10-23T00:14:04.141Z,13.58
2022-10-23T00:16:30.496Z,13.51
2022-10-23T00:18:57.389Z,13.47
2022-10-23T00:21:24.614Z,13.39
2022-10-23T00:23:51.129Z,13.40
2022-10-23T00:26:17.684Z,13.35
2022-10-23T00:28:45.029Z,13.33
2022-10-23T00:31:12.247Z,13.36
2022-10-23T00:33:40.594Z,13.38
2022-10-23T00:36:08.612Z,13.38
2022-10-23T00:38:35.472Z,13.39
2022-10-23T00:41:02.058Z,13.43
2022-10-23T00:43:29.487Z,13.43
2022-10-23T00:45:56.299Z,13.29
2022-10-23T00:48:23.108Z,13.28
2022-10-23T00:50:50.347Z,13.20
2022-10-23T00:53:17.163Z,13.20
2022-10-23T00:55:46.989Z,13.20
2022-10-23T00:58:17.956Z,13.18
2022-10-23T01:00:45.265Z,13.17
2022-10-23T01:03:12.137Z,13.09
2022-10-23T01:08:37.442Z,13.22
2022-10-23T01:11:09.967Z,13.11
2022-10-23T01:13:44.946Z,13.12
2022-10-23T01:16:18.647Z,13.11
2022-10-23T01:18:48.822Z,13.07
2022-10-23T01:21:27.190Z,13.04
2022-10-23T01:24:05.799Z,13.10
2022-10-23T01:26:35.416Z,13.08
2022-10-23T01:29:01.715Z,13.15
2022-10-23T01:31:32.072Z,13.16
2022-10-23T01:34:00.823Z,13.16
2022-10-23T01:36:29.703Z,13.17
2022-10-23T01:39:00.133Z,13.06
2022-10-23T01:41:32.304Z,13.04
2022-10-23T01:44:07.269Z,13.01
2022-10-23T01:46:37.343Z,13.02
2022-10-23T01:49:08.468Z,13.07
2022-10-23T01:51:36.462Z,13.04
2022-10-23T01:54:07.223Z,13.06
2022-10-23T01:56:35.118Z,13.11
2022-10-23T01:59:03.939Z,13.11
2022-10-23T02:01:37.068Z,13.08
2022-10-23T02:04:06.395Z,13.10
2022-10-23T02:06:32.783Z,13.12
2022-10-23T02:08:59.324Z,13.06
2022-10-23T02:11:26.550Z,13.04
2022-10-23T02:13:56.096Z,13.01
2022-10-23T02:16:43.301Z,12.98
2022-10-23T02:19:24.799Z,13.01
2022-10-23T02:21:56.367Z,13.02
2022-10-23T02:24:35.037Z,13.01
2022-10-23T02:27:10.029Z,12.97
2022-10-23T02:29:41.091Z,12.98
2022-10-23T02:32:09.025Z,12.95
2022-10-23T02:34:35.474Z,12.96
2022-10-23T02:37:02.256Z,12.98
2022-10-23T02:39:29.119Z,12.99
2022-10-23T02:42:17.241Z,13.00
2022-10-23T02:44:44.194Z,13.03
2022-10-23T02:47:19.787Z,13.03
2022-10-23T02:49:53.828Z,13.02
2022-10-23T02:52:29.493Z,13.03
2022-10-23T02:55:05.252Z,13.06
2022-10-23T02:58:01.797Z,13.05
2022-10-23T03:00:29.871Z,13.06
2022-10-23T03:02:57.088Z,13.04
2022-10-23T03:05:30.355Z,13.06
2022-10-23T03:07:56.744Z,13.05
2022-10-23T03:10:23.232Z,13.12
2022-10-23T03:12:50.488Z,13.09
2022-10-23T03:15:17.631Z,13.09
2022-10-23T03:17:44.120Z,13.09
2022-10-23T03:20:11.015Z,13.14
2022-10-23T03:22:37.449Z,13.11
2022-10-23T03:25:04.065Z,13.07
2022-10-23T03:27:32.063Z,13.00
2022-10-23T03:30:02.748Z,12.98
2022-10-23T03:32:30.372Z,13.05
2022-10-23T03:34:56.753Z,13.00
2022-10-23T03:37:23.526Z,13.00
2022-10-23T03:39:50.241Z,12.96
2022-10-23T03:42:16.930Z,12.98
2022-10-23T03:44:43.596Z,12.95
2022-10-23T03:47:11.878Z,12.98
2022-10-23T03:49:41.378Z,12.98
2022-10-23T03:52:07.931Z,12.99
2022-10-23T03:54:34.924Z,13.02
2022-10-23T03:57:01.817Z,13.04
2022-10-23T03:59:28.324Z,13.07
2022-10-23T04:01:54.886Z,13.09
2022-10-23T04:04:23.845Z,13.07
2022-10-23T04:06:50.211Z,12.99
2022-10-23T04:09:19.090Z,12.95
2022-10-23T04:11:45.639Z,12.94
2022-10-23T04:14:13.206Z,12.98
2022-10-23T04:16:40.064Z,12.98
2022-10-23T04:19:06.537Z,12.98
2022-10-23T04:21:33.033Z,12.97
2022-10-23T04:24:00.476Z,12.96
2022-10-23T04:26:27.021Z,12.94
2022-10-23T04:28:53.397Z,12.92
2022-10-23T04:31:19.778Z,12.96
2022-10-23T04:33:46.247Z,12.98
2022-10-23T04:36:26.298Z,12.95
2022-10-23T04:38:53.272Z,12.90
2022-10-23T04:41:19.959Z,12.93
2022-10-23T04:43:46.397Z,12.97
2022-10-23T04:46:14.469Z,12.98
2022-10-23T04:48:40.897Z,12.93
2022-10-23T04:51:23.617Z,12.93
2022-10-23T04:53:57.135Z,12.88
2022-10-23T04:56:44.120Z,12.89
2022-10-23T04:59:16.778Z,12.93
2022-10-23T05:01:44.410Z,12.93
2022-10-23T05:04:10.890Z,12.94
2022-10-23T05:06:57.282Z,12.92
2022-10-23T05:09:46.262Z,12.91
2022-10-23T05:12:36.657Z,12.91
2022-10-23T05:15:03.843Z,12.92
2022-10-23T05:17:34.556Z,12.97
2022-10-23T05:20:03.949Z,12.98
2022-10-23T05:22:32.509Z,12.97
2022-10-23T05:25:01.848Z,12.94
2022-10-23T05:27:30.638Z,12.96
2022-10-23T05:29:57.054Z,12.91
2022-10-23T05:32:29.605Z,12.89
2022-10-23T05:34:58.071Z,12.91
2022-10-23T05:37:27.690Z,12.92
2022-10-23T05:40:04.848Z,12.91
2022-10-23T05:42:34.442Z,12.89
2022-10-23T05:45:02.900Z,12.87
2022-10-23T05:48:10.867Z,12.82
2022-10-23T05:51:11.689Z,12.87
2022-10-23T05:53:46.854Z,12.86
2022-10-23T05:56:37.007Z,12.81
2022-10-23T05:59:21.976Z,12.79
2022-10-23T06:01:52.548Z,12.82
2022-10-23T06:04:30.904Z,12.87
2022-10-23T06:07:24.608Z,12.78
2022-10-23T06:09:52.988Z,12.80
2022-10-23T06:12:20.272Z,12.76
2022-10-23T06:14:48.517Z,12.77
2022-10-23T06:17:15.336Z,12.77
2022-10-23T06:19:45.758Z,12.70
2022-10-23T06:22:15.697Z,12.70
2022-10-23T06:24:48.974Z,12.73
2022-10-23T06:27:21.741Z,12.73
2022-10-23T06:29:48.485Z,12.76
2022-10-23T06:32:15.041Z,12.75
2022-10-23T06:34:48.571Z,12.75
2022-10-23T06:37:15.050Z,12.80
2022-10-23T06:40:06.240Z,12.77
2022-10-23T06:43:11.254Z,12.81
2022-10-23T06:46:04.525Z,12.77
2022-10-23T06:48:57.160Z,12.75
2022-10-23T06:51:29.652Z,12.78
2022-10-23T06:53:57.075Z,12.79
2022-10-23T06:56:53.372Z,12.82
2022-10-23T06:59:31.895Z,12.82
2022-10-23T07:01:58.334Z,12.85
2022-10-23T07:04:25.351Z,12.84
2022-10-23T07:06:54.915Z,12.86
2022-10-23T07:09:25.419Z,12.90
2022-10-23T07:12:12.065Z,12.92
2022-10-23T07:14:45.949Z,12.93
2022-10-23T07:17:12.641Z,12.95
2022-10-23T07:19:39.054Z,13.02
2022-10-23T07:22:15.930Z,13.03
2022-10-23T07:24:54.601Z,13.07
2022-10-23T07:27:35.781Z,13.09
2022-10-23T07:30:02.273Z,13.14
2022-10-23T07:32:33.300Z,13.22
2022-10-23T07:35:20.040Z,13.26
2022-10-23T07:37:54.942Z,13.32
2022-10-23T07:40:22.006Z,13.44
2022-10-23T07:42:50.926Z,13.53
2022-10-23T07:45:18.253Z,13.49
2022-10-23T07:47:50.351Z,13.61
2022-10-23T07:50:17.959Z,13.68
2022-10-23T07:52:44.869Z,13.78
2022-10-23T07:55:13.744Z,13.82
2022-10-23T07:57:47.136Z,13.93
2022-10-23T08:00:38.672Z,14.09
2022-10-23T08:03:12.758Z,14.20
2022-10-23T08:05:39.717Z,14.32
2022-10-23T08:08:06.310Z,14.40
2022-10-23T08:10:33.519Z,14.51
2022-10-23T08:13:00.226Z,14.66
2022-10-23T08:15:47.647Z,14.84
2022-10-23T08:18:34.192Z,14.93
2022-10-23T08:21:02.238Z,14.90
2022-10-23T08:23:29.392Z,15.10
2022-10-23T08:26:03.312Z,15.19
2022-10-23T08:28:31.674Z,15.19
2022-10-23T08:31:06.077Z,15.18
2022-10-23T08:33:32.603Z,15.39
2022-10-23T08:35:59.040Z,15.42
2022-10-23T08:38:30.867Z,15.45
2022-10-23T08:41:01.439Z,15.50
2022-10-23T08:43:47.102Z,15.57
2022-10-23T08:46:27.830Z,15.52
2022-10-23T08:49:29.886Z,15.58
2022-10-23T08:52:40.388Z,15.83
2022-10-23T08:55:23.414Z,15.78
2022-10-23T08:58:03.789Z,15.82
2022-10-23T09:00:30.219Z,15.90
2022-10-23T09:02:57.190Z,16.02
2022-10-23T09:05:23.542Z,15.89
2022-10-23T09:08:01.266Z,16.08
2022-10-23T09:10:48.146Z,16.27
2022-10-23T09:13:27.156Z,16.24
2022-10-23T09:16:03.629Z,16.38
2022-10-23T09:18:30.541Z,16.46
2022-10-23T09:20:57.341Z,16.41
2022-10-23T09:23:24.256Z,16.35
2022-10-23T09:25:55.509Z,16.33
2022-10-23T09:28:23.989Z,16.23
2022-10-23T09:30:50.737Z,16.27
2022-10-23T09:33:17.107Z,16.25
2022-10-23T09:36:03.461Z,16.30
2022-10-23T09:38:37.417Z,16.30
2022-10-23T09:41:17.165Z,16.37
2022-10-23T09:43:43.719Z,16.48
2022-10-23T09:46:11.815Z,16.50
2022-10-23T09:48:39.857Z,16.49
2022-10-23T09:51:20.884Z,16.49
2022-10-23T09:53:47.232Z,16.62
2022-10-23T09:56:32.133Z,16.65
2022-10-23T09:59:04.139Z,16.79
2022-10-23T10:01:36.223Z,16.66
2022-10-23T10:04:39.257Z,16.72
2022-10-23T10:07:15.955Z,16.77
2022-10-23T10:09:43.235Z,16.83
2022-10-23T10:12:15.816Z,16.92
2022-10-23T10:14:55.361Z,16.90
2022-10-23T10:17:40.672Z,16.89
2022-10-23T10:20:19.140Z,16.93
2022-10-23T10:22:48.566Z,16.95
2022-10-23T10:25:14.904Z,16.92
2022-10-23T10:28:00.265Z,16.96
2022-10-23T10:30:33.237Z,17.00
2022-10-23T10:33:02.419Z,16.88
2022-10-23T10:35:41.758Z,17.06
2022-10-23T10:38:16.981Z,17.06
2022-10-23T10:40:51.661Z,17.04
2022-10-23T10:43:23.977Z,17.04
2022-10-23T10:45:53.152Z,17.04
2022-10-23T10:48:22.520Z,17.12
2022-10-23T10:51:26.189Z,17.20
2022-10-23T10:54:10.915Z,17.19
2022-10-23T10:56:39.419Z,17.26
2022-10-23T10:59:14.522Z,17.18
2022-10-23T11:01:45.102Z,17.24
2022-10-23T11:04:14.067Z,17.22
2022-10-23T11:06:41.581Z,17.13
2022-10-23T11:09:20.715Z,17.18
2022-10-23T11:11:48.573Z,17.21
2022-10-23T11:14:19.578Z,17.17
2022-10-23T11:16:48.234Z,17.25
2022-10-23T11:19:18.238Z,17.31
2022-10-23T11:21:47.541Z,17.30
2022-10-23T11:24:32.500Z,17.25
2022-10-23T11:27:08.184Z,17.28
2022-10-23T11:29:34.509Z,17.28
2022-10-23T11:32:03.913Z,17.29
2022-10-23T11:34:49.398Z,17.23
2022-10-23T11:37:16.780Z,17.25
2022-10-23T11:39:55.596Z,17.29
2022-10-23T11:42:33.089Z,17.27
2022-10-23T11:44:59.522Z,17.24
2022-10-23T11:47:25.843Z,17.33
2022-10-23T11:50:04.138Z,17.42
2022-10-23T11:52:30.501Z,17.61
2022-10-23T11:55:05.057Z,17.58
2022-10-23T12:00:03.103Z,17.76
2022-10-23T12:02:39.517Z,17.90
2022-10-23T12:05:07.404Z,17.92
2022-10-23T12:07:36.091Z,17.88
2022-10-23T12:10:04.562Z,17.99
2022-10-23T12:12:34.060Z,17.99
2022-10-23T12:15:16.021Z,17.96
2022-10-23T12:17:43.508Z,17.97
2022-10-23T12:20:13.023Z,17.99
2022-10-23T12:22:39.447Z,17.98
2022-10-23T12:25:13.183Z,18.07
2022-10-23T12:27:45.660Z,18.02
2022-10-23T12:30:20.590Z,18.04
2022-10-23T12:33:05.867Z,18.07
2022-10-23T12:35:32.592Z,17.99
2022-10-23T12:38:15.027Z,17.96
2022-10-23T12:40:44.818Z,17.96
2022-10-23T12:43:22.815Z,17.95
2022-10-23T12:45:50.319Z,17.96
2022-10-23T12:48:21.389Z,17.99
2022-10-23T12:50:50.317Z,17.99
2022-10-23T12:53:17.757Z,18.03
2022-10-23T12:55:58.072Z,17.96
2022-10-23T12:58:27.130Z,17.99
2022-10-23T13:00:58.057Z,17.98
2022-10-23T13:03:25.414Z,18.00
2022-10-23T13:05:52.865Z,17.98
2022-10-23T13:08:20.052Z,17.99
2022-10-23T13:11:06.679Z,17.95
2022-10-23T13:13:37.072Z,17.94
2022-10-23T13:16:12.957Z,17.92
2022-10-23T13:18:42.566Z,17.92
2022-10-23T13:21:15.948Z,17.90
2022-10-23T13:23:43.442Z,17.88
2022-10-23T13:26:28.612Z,17.90
2022-10-23T13:28:55.248Z,17.96
2022-10-23T13:31:21.569Z,17.97
2022-10-23T13:33:53.826Z,17.96
2022-10-23T13:36:23.747Z,17.97
2022-10-23T13:39:02.179Z,17.96
2022-10-23T13:41:29.947Z,18.00
2022-10-23T13:43:56.315Z,17.98
2022-10-23T13:46:27.074Z,17.98
2022-10-23T13:48:53.546Z,17.95
2022-10-23T13:51:22.063Z,17.94
2022-10-23T13:53:48.762Z,17.96
2022-10-23T13:56:16.262Z,17.98
2022-10-23T13:58:42.969Z,17.99
2022-10-23T14:01:29.884Z,17.98
2022-10-23T14:03:56.918Z,17.95
2022-10-23T14:06:23.302Z,17.91
2022-10-23T14:08:49.700Z,17.89
2022-10-23T14:11:16.867Z,17.86
2022-10-23T14:13:43.420Z,17.84
2022-10-23T14:16:11.538Z,17.84
2022-10-23T14:18:38.152Z,17.82
2022-10-23T14:21:05.396Z,17.82
2022-10-23T14:23:31.837Z,17.81
2022-10-23T14:26:01.755Z,17.81
2022-10-23T14:28:28.122Z,17.79
2022-10-23T14:30:54.486Z,17.80
2022-10-23T14:33:20.834Z,17.81
2022-10-23T14:35:49.570Z,17.81
2022-10-23T14:38:15.944Z,17.80
2022-10-23T14:40:42.304Z,17.80
2022-10-23T14:43:08.779Z,17.82
2022-10-23T14:45:35.140Z,17.79
2022-10-23T14:48:02.445Z,17.75
2022-10-23T14:50:31.394Z,17.73
2022-10-23T14:52:57.930Z,17.72
2022-10-23T14:55:24.368Z,17.70
2022-10-23T14:57:54.665Z,17.66
2022-10-23T15:00:21.374Z,17.58
2022-10-23T15:02:47.792Z,17.47
2022-10-23T15:05:14.445Z,17.35
2022-10-23T15:07:40.919Z,17.26
2022-10-23T15:10:08.723Z,17.24
2022-10-23T15:12:35.653Z,17.16
2022-10-23T15:15:02.368Z,17.12
2022-10-23T15:17:28.772Z,17.06
2022-10-23T15:19:55.180Z,17.03
2022-10-23T15:22:23.019Z,16.97
2022-10-23T15:24:49.502Z,16.94
2022-10-23T15:27:15.915Z,16.89
2022-10-23T15:29:42.321Z,16.88
2022-10-23T15:32:09.396Z,16.93
2022-10-23T15:34:37.536Z,16.89
2022-10-23T15:37:04.276Z,16.84
2022-10-23T15:39:35.537Z,16.72
2022-10-23T15:42:03.427Z,16.76
2022-10-23T15:44:31.058Z,16.73
2022-10-23T15:46:58.171Z,16.71
2022-10-23T15:49:25.264Z,16.68
2022-10-23T15:51:51.780Z,16.64
2022-10-23T15:54:19.409Z,16.62
2022-10-23T15:56:46.807Z,16.58
2022-10-23T15:59:13.359Z,16.64
2022-10-23T16:01:40.056Z,16.60
2022-10-23T16:04:06.786Z,16.52
2022-10-23T16:06:33.209Z,16.52
2022-10-23T16:08:59.661Z,16.49
2022-10-23T16:11:27.670Z,16.51
2022-10-23T16:13:54.408Z,16.43
2022-10-23T16:16:20.805Z,16.36
2022-10-23T16:18:47.478Z,16.32
2022-10-23T16:21:22.258Z,16.28
2022-10-23T16:23:49.510Z,16.33
2022-10-23T16:26:16.332Z,16.31
2022-10-23T16:28:44.836Z,16.22
2022-10-23T16:31:19.183Z,16.30
2022-10-23T16:33:47.554Z,16.25
2022-10-23T16:36:13.960Z,16.22
2022-10-23T16:39:19.269Z,16.15
2022-10-23T16:42:04.703Z,16.13
2022-10-23T16:44:57.270Z,16.10
2022-10-23T16:47:24.024Z,16.13
2022-10-23T16:49:50.400Z,16.06
2022-10-23T16:52:16.789Z,15.99
2022-10-23T16:54:43.600Z,16.09
2022-10-23T16:57:10.000Z,16.04
2022-10-23T16:59:36.994Z,16.01
2022-10-23T17:02:03.601Z,16.06
2022-10-23T17:04:30.156Z,15.97
2022-10-23T17:06:56.606Z,15.99
2022-10-23T17:09:23.573Z,15.91
2022-10-23T17:11:52.973Z,15.98
2022-10-23T17:14:21.084Z,15.90
2022-10-23T17:16:48.644Z,15.98
2022-10-23T17:19:33.056Z,15.94
2022-10-23T17:22:03.005Z,15.95
2022-10-23T17:24:29.556Z,15.88
2022-10-23T17:26:56.160Z,15.87
2022-10-23T17:29:22.586Z,15.87
2022-10-23T17:31:49.906Z,15.86
2022-10-23T17:34:17.919Z,15.79
2022-10-23T17:36:46.119Z,15.90
2022-10-23T17:39:13.951Z,15.83
2022-10-23T17:41:40.774Z,15.88
2022-10-23T17:44:07.285Z,15.82
2022-10-23T17:46:33.821Z,15.81
2022-10-23T17:51:29.910Z,15.80
2022-10-23T17:53:57.197Z,15.79
2022-10-23T17:56:25.139Z,15.83
2022-10-23T17:58:52.522Z,15.77
2022-10-23T18:01:20.805Z,15.86
2022-10-23T18:03:47.393Z,15.76
2022-10-23T18:06:15.081Z,15.84
2022-10-23T18:08:42.467Z,15.83
2022-10-23T18:11:14.877Z,15.73
2022-10-23T18:13:41.313Z,15.75
2022-10-23T18:16:08.020Z,15.81
2022-10-23T18:18:34.533Z,15.79
2022-10-23T18:21:01.762Z,15.79
2022-10-23T18:23:29.513Z,15.77
2022-10-23T18:25:56.545Z,15.78
2022-10-23T18:28:23.260Z,15.74
2022-10-23T18:30:52.206Z,15.71
2022-10-23T18:33:21.322Z,15.71
2022-10-23T18:35:48.129Z,15.69
2022-10-23T18:38:14.751Z,15.71
2022-10-23T18:40:42.328Z,15.67
2022-10-23T18:43:14.778Z,15.64
2022-10-23T18:45:42.373Z,15.66
2022-10-23T18:48:08.755Z,15.64
2022-10-23T18:50:35.988Z,15.59
2022-10-23T18:53:02.385Z,15.62
2022-10-23T18:55:28.892Z,15.58
2022-10-23T18:57:55.381Z,15.56
2022-10-23T19:00:21.773Z,15.53
2022-10-23T19:02:52.157Z,15.51
2022-10-23T19:05:19.354Z,15.56
2022-10-23T19:07:46.486Z,15.54
2022-10-23T19:10:15.818Z,15.52
2022-10-23T19:12:42.689Z,15.59
2022-10-23T19:15:09.732Z,15.55
2022-10-23T19:17:36.691Z,15.59
2022-10-23T19:20:10.330Z,15.60
2022-10-23T19:22:37.553Z,15.58
2022-10-23T19:25:10.184Z,15.62
2022-10-23T19:27:37.541Z,15.63
2022-10-23T19:30:06.448Z,15.57
2022-10-23T19:32:32.800Z,15.56
2022-10-23T19:34:59.793Z,15.52
2022-10-23T19:37:26.208Z,15.50
2022-10-23T19:39:52.658Z,15.49
2022-10-23T19:42:19.116Z,15.55
2022-10-23T19:44:45.484Z,15.54
2022-10-23T19:47:11.892Z,15.55
2022-10-23T19:49:38.346Z,15.59
2022-10-23T19:52:04.882Z,15.59
2022-10-23T19:54:31.308Z,15.57
2022-10-23T19:56:57.901Z,15.57
2022-10-23T19:59:24.441Z,15.49
2022-10-23T20:01:50.923Z,15.51
2022-10-23T20:04:18.310Z,15.48
2022-10-23T20:06:44.992Z,15.43
2022-10-23T20:09:11.482Z,15.44
2022-10-23T20:11:39.216Z,15.41
2022-10-23T20:14:06.251Z,15.50
2022-10-23T20:16:34.385Z,15.51
2022-10-23T20:19:02.151Z,15.42
2022-10-23T20:21:28.674Z,15.50
2022-10-23T20:23:56.771Z,15.46
2022-10-23T20:26:23.253Z,15.49
2022-10-23T20:28:51.966Z,15.47
2022-10-23T20:31:19.366Z,15.46
2022-10-23T20:33:45.776Z,15.45
2022-10-23T20:36:22.912Z,15.48
2022-10-23T20:38:49.418Z,15.53
2022-10-23T20:41:15.890Z,15.47
2022-10-23T20:43:42.351Z,15.40
2022-10-23T20:46:09.595Z,15.41
2022-10-23T20:48:39.790Z,15.33
2022-10-23T20:51:07.456Z,15.30
2022-10-23T20:53:34.579Z,15.35
2022-10-23T20:56:04.699Z,15.29
2022-10-23T20:58:31.143Z,15.21
2022-10-23T21:01:01.941Z,15.28
2022-10-23T21:03:28.315Z,15.23
2022-10-23T21:05:54.678Z,15.20
2022-10-23T21:08:21.030Z,15.20
2022-10-23T21:10:47.462Z,15.21
2022-10-23T21:13:13.825Z,15.17
2022-10-23T21:15:40.226Z,15.14
2022-10-23T21:18:27.488Z,15.14
2022-10-23T21:21:00.412Z,15.12
2022-10-23T21:23:28.706Z,15.10
2022-10-23T21:25:55.131Z,15.11
2022-10-23T21:28:21.475Z,15.04
2022-10-23T21:30:47.845Z,15.06
2022-10-23T21:33:14.298Z,15.04
2022-10-23T21:35:47.523Z,15.01
2022-10-23T21:38:24.632Z,15.03
2022-10-23T21:40:51.073Z,15.05
2022-10-23T21:43:17.541Z,15.02
2022-10-23T21:45:43.905Z,15.02
2022-10-23T21:48:10.253Z,15.02
2022-10-23T21:50:36.675Z,15.02
2022-10-23T21:53:03.074Z,15.02
2022-10-23T21:55:30.319Z,14.99
2022-10-23T21:57:56.675Z,15.00
2022-10-23T22:00:23.733Z,15.05
2022-10-23T22:02:50.145Z,15.04
2022-10-23T22:05:16.780Z,15.03
2022-10-23T22:07:46.346Z,15.03
2022-10-23T22:10:12.932Z,15.04
2022-10-23T22:12:39.381Z,14.97
2022-10-23T22:15:06.087Z,15.02
2022-10-23T22:17:32.424Z,15.02
2022-10-23T22:19:58.824Z,15.03
2022-10-23T22:22:25.162Z,14.98
2022-10-23T22:24:51.539Z,14.99
2022-10-23T22:27:17.991Z,14.99
2022-10-23T22:29:44.344Z,15.03
2022-10-23T22:32:10.745Z,15.08
2022-10-23T22:34:53.521Z,15.07
2022-10-23T22:37:20.081Z,15.03
2022-10-23T22:39:49.484Z,14.94
2022-10-23T22:42:15.839Z,14.94
2022-10-23T22:44:42.226Z,15.02
2022-10-23T22:47:08.572Z,14.98
2022-10-23T22:49:35.088Z,14.96
2022-10-23T22:52:01.431Z,15.01
2022-10-23T22:54:27.885Z,14.97
2022-10-23T22:56:54.339Z,14.92
2022-10-23T22:59:20.706Z,14.93
2022-10-23T23:01:48.122Z,14.94
2022-10-23T23:04:36.804Z,14.96
2022-10-23T23:07:04.583Z,14.91
2022-10-23T23:09:30.959Z,14.94
2022-10-23T23:11:57.568Z,14.94
2022-10-23T23:14:24.561Z,14.84
2022-10-23T23:16:51.739Z,14.90
2022-10-23T23:19:18.180Z,14.90
2022-10-23T23:21:44.533Z,14.91
2022-10-23T23:24:11.484Z,15.00
2022-10-23T23:26:37.848Z,15.07
2022-10-23T23:29:04.242Z,15.09
2022-10-23T23:31:30.619Z,15.11
2022-10-23T23:33:57.170Z,15.04
2022-10-23T23:36:24.803Z,15.04
2022-10-23T23:38:51.721Z,15.01
2022-10-23T23:41:19.588Z,15.05
2022-10-23T23:43:46.011Z,14.97
2022-10-23T23:46:12.791Z,14.92
2022-10-23T23:48:39.490Z,14.97
2022-10-23T23:51:05.968Z,14.98
2022-10-23T23:53:32.308Z,14.88
2022-10-23T23:55:58.687Z,14.92
2022-10-23T23:58:25.039Z,14.97
